createdAt,value
2022-11-09T15:02:24.245Z,15.64
2022-11-09T15:04:51.845Z,15.65
2022-11-09T15:07:20.496Z,15.71
2022-11-09T15:09:48.996Z,15.70
2022-11-09T15:12:19.708Z,15.70
2022-11-09T15:15:06.225Z,15.71
2022-11-09T15:17:35.026Z,15.72
2022-11-09T15:20:24.255Z,15.72
2022-11-09T15:22:50.853Z,15.72
2022-11-09T15:25:22.656Z,15.75
2022-11-09T15:27:59.932Z,15.77
2022-11-09T15:30:34.617Z,15.80
2022-11-09T15:33:01.694Z,15.81
2022-11-09T15:35:28.327Z,15.81
2022-11-09T15:37:56.076Z,15.80
2022-11-09T15:40:24.047Z,15.81
2022-11-09T15:42:50.646Z,15.79
2022-11-09T15:45:18.934Z,15.77
2022-11-09T15:47:50.849Z,15.73
2022-11-09T15:50:20.057Z,15.75
2022-11-09T15:52:49.202Z,15.76
2022-11-09T15:55:17.111Z,15.74
2022-11-09T15:57:43.980Z,15.72
2022-11-09T16:00:19.370Z,15.69
2022-11-09T16:02:47.774Z,15.65
2022-11-09T16:05:15.172Z,15.60
2022-11-09T16:07:50.683Z,15.56
2022-11-09T16:10:22.988Z,15.54
2022-11-09T16:12:56.754Z,15.51
2022-11-09T16:15:24.507Z,15.49
2022-11-09T16:17:51.446Z,15.50
2022-11-09T16:20:20.033Z,15.49
2022-11-09T16:22:46.797Z,15.45
2022-11-09T16:25:13.575Z,15.43
2022-11-09T16:27:50.161Z,15.39
2022-11-09T16:30:18.424Z,15.36
2022-11-09T16:32:45.304Z,15.34
2022-11-09T16:35:26.555Z,15.31
2022-11-09T16:37:58.489Z,15.34
2022-11-09T16:40:29.366Z,15.35
2022-11-09T16:42:58.739Z,15.34
2022-11-09T16:45:29.165Z,15.32
2022-11-09T16:48:00.237Z,15.30
2022-11-09T16:50:26.844Z,15.32
2022-11-09T16:52:53.497Z,15.34
2022-11-09T16:55:20.076Z,15.31
2022-11-09T16:57:46.661Z,15.31
2022-11-09T17:00:13.608Z,15.30
2022-11-09T17:02:40.193Z,15.24
2022-11-09T17:05:06.981Z,15.17
2022-11-09T17:07:41.994Z,15.16
2022-11-09T17:10:09.513Z,15.16
2022-11-09T17:12:36.110Z,15.14
2022-11-09T17:15:02.693Z,15.09
2022-11-09T17:17:29.551Z,15.08
2022-11-09T17:19:56.125Z,15.04
2022-11-09T17:22:26.891Z,14.95
2022-11-09T17:24:53.463Z,14.93
2022-11-09T17:27:20.035Z,14.89
2022-11-09T17:29:46.604Z,14.90
2022-11-09T17:32:13.175Z,14.90
2022-11-09T17:34:39.794Z,14.89
2022-11-09T17:37:06.438Z,14.85
2022-11-09T17:39:33.111Z,14.82
2022-11-09T17:41:59.738Z,14.79
2022-11-09T17:44:26.303Z,14.79
2022-11-09T17:46:53.023Z,14.81
2022-11-09T17:49:19.609Z,14.81
2022-11-09T17:51:46.240Z,14.75
2022-11-09T17:54:14.841Z,14.71
2022-11-09T17:56:41.559Z,14.66
2022-11-09T17:59:08.192Z,14.68
2022-11-09T18:01:41.106Z,14.70
2022-11-09T18:04:09.805Z,14.69
2022-11-09T18:06:36.537Z,14.66
2022-11-09T18:09:39.062Z,14.69
2022-11-09T18:11:50.094Z,14.68
2022-11-09T18:14:16.734Z,14.70
2022-11-09T18:16:43.747Z,14.71
2022-11-09T18:19:10.337Z,14.73
2022-11-09T18:21:36.928Z,14.74
2022-11-09T18:24:03.708Z,14.74
2022-11-09T18:26:31.587Z,14.74
2022-11-09T18:28:58.276Z,14.72
2022-11-09T18:31:27.889Z,14.70
2022-11-09T18:34:04.416Z,14.69
2022-11-09T18:36:31.160Z,14.67
2022-11-09T18:38:57.856Z,14.62
2022-11-09T18:41:24.924Z,14.58
2022-11-09T18:43:58.641Z,14.56
2022-11-09T18:46:27.103Z,14.54
2022-11-09T18:48:54.422Z,14.51
2022-11-09T18:51:21.183Z,14.47
2022-11-09T18:53:48.189Z,14.40
2022-11-09T18:56:23.644Z,14.41
2022-11-09T18:58:53.326Z,14.34
2022-11-09T19:01:20.475Z,14.29
2022-11-09T19:04:00.585Z,14.29
2022-11-09T19:06:28.125Z,14.30
2022-11-09T19:09:13.145Z,14.31
2022-11-09T19:11:39.724Z,14.27
2022-11-09T19:14:06.343Z,14.27
2022-11-09T19:16:32.958Z,14.29
2022-11-09T19:18:59.554Z,14.30
2022-11-09T19:21:32.758Z,14.26
2022-11-09T19:24:00.528Z,14.23
2022-11-09T19:26:27.238Z,14.23
2022-11-09T19:28:53.896Z,14.24
2022-11-09T19:31:21.982Z,14.23
2022-11-09T19:33:53.554Z,14.17
2022-11-09T19:36:30.176Z,14.19
2022-11-09T19:38:57.846Z,14.19
2022-11-09T19:41:25.731Z,14.16
2022-11-09T19:43:54.717Z,14.15
2022-11-09T19:46:21.963Z,14.19
2022-11-09T19:48:48.819Z,14.19
2022-11-09T19:51:16.539Z,14.19
2022-11-09T19:53:48.241Z,14.14
2022-11-09T19:56:14.872Z,14.10
2022-11-09T19:58:41.514Z,14.05
2022-11-09T20:01:09.545Z,13.99
2022-11-09T20:03:36.759Z,13.98
2022-11-09T20:06:04.078Z,13.97
2022-11-09T20:08:32.107Z,13.91
2022-11-09T20:11:04.158Z,13.86
2022-11-09T20:13:30.744Z,13.87
2022-11-09T20:16:04.596Z,13.91
2022-11-09T20:18:31.241Z,13.92
2022-11-09T20:20:57.871Z,13.88
2022-11-09T20:23:24.606Z,13.84
2022-11-09T20:25:51.192Z,13.84
2022-11-09T20:28:18.018Z,13.78
2022-11-09T20:30:44.790Z,13.77
